createdAt,value
2018-05-16T00:00:25.781Z,0.00
2018-05-16T00:01:25.714Z,0.00
2018-05-16T00:02:25.663Z,0.00
2018-05-16T00:03:25.591Z,0.00
2018-05-16T00:04:25.528Z,0.00
2018-05-16T00:05:25.466Z,0.00
2018-05-16T00:06:25.404Z,0.00
2018-05-16T00:07:25.338Z,0.00
2018-05-16T00:08:25.280Z,0.00
2018-05-16T00:09:25.213Z,0.00
2018-05-16T00:10:25.153Z,0.00
2018-05-16T00:11:25.091Z,0.00
2018-05-16T00:12:25.029Z,0.00
2018-05-16T00:13:24.973Z,0.00
2018-05-16T00:14:24.905Z,0.00
2018-05-16T00:15:24.841Z,0.00
2018-05-16T00:16:24.777Z,0.00
2018-05-16T00:17:24.716Z,0.00
2018-05-16T00:18:24.656Z,0.00
2018-05-16T00:19:24.589Z,0.00
2018-05-16T00:20:24.528Z,0.00
2018-05-16T00:21:24.469Z,0.00
2018-05-16T00:22:24.402Z,0.00
2018-05-16T00:23:24.342Z,0.00
2018-05-16T00:24:24.280Z,0.00
2018-05-16T00:25:24.218Z,0.00
2018-05-16T00:26:24.155Z,0.00
2018-05-16T00:27:24.091Z,0.00
2018-05-16T00:28:24.025Z,0.00
2018-05-16T00:29:23.967Z,0.00
2018-05-16T00:30:23.904Z,0.00
2018-05-16T00:31:23.842Z,0.00
2018-05-16T00:32:23.785Z,0.00
2018-05-16T00:33:23.718Z,0.00
2018-05-16T00:34:23.656Z,0.00
2018-05-16T00:35:23.599Z,0.00
2018-05-16T00:36:23.534Z,0.00
2018-05-16T00:37:23.469Z,0.00
2018-05-16T00:38:23.412Z,0.00
2018-05-16T00:39:23.342Z,0.00
2018-05-16T00:40:23.285Z,0.00
2018-05-16T00:41:23.218Z,0.00
2018-05-16T00:42:23.159Z,0.00
2018-05-16T00:43:23.093Z,0.00
2018-05-16T00:44:23.031Z,0.00
2018-05-16T00:45:22.975Z,0.00
2018-05-16T00:46:22.914Z,0.00
2018-05-16T00:47:22.841Z,0.00
2018-05-16T00:48:22.783Z,0.00
2018-05-16T00:49:22.726Z,0.00
2018-05-16T00:50:22.658Z,0.00
2018-05-16T00:51:22.597Z,0.00
2018-05-16T00:52:22.534Z,0.00
2018-05-16T00:53:22.471Z,0.00
2018-05-16T00:54:22.409Z,0.00
2018-05-16T00:55:22.348Z,0.00
2018-05-16T00:56:22.285Z,0.00
2018-05-16T00:57:22.224Z,0.00
2018-05-16T00:58:22.161Z,0.00
2018-05-16T00:59:22.097Z,0.00
2018-05-16T01:00:22.035Z,0.00
2018-05-16T01:01:21.973Z,0.00
2018-05-16T01:02:21.912Z,0.00
2018-05-16T01:03:21.849Z,0.00
2018-05-16T01:04:21.787Z,0.00
2018-05-16T01:05:21.724Z,0.00
2018-05-16T01:06:21.669Z,0.00
2018-05-16T01:07:21.600Z,0.00
2018-05-16T01:08:21.539Z,0.00
2018-05-16T01:09:21.482Z,0.00
2018-05-16T01:10:21.415Z,0.00
2018-05-16T01:11:21.347Z,0.00
2018-05-16T01:12:21.286Z,0.00
2018-05-16T01:13:21.226Z,0.00
2018-05-16T01:14:21.164Z,0.00
2018-05-16T01:15:21.103Z,0.00
2018-05-16T01:16:21.042Z,0.00
2018-05-16T01:17:20.981Z,0.00
2018-05-16T01:18:20.920Z,0.00
2018-05-16T01:19:20.851Z,0.00
2018-05-16T01:20:20.789Z,0.00
2018-05-16T01:21:20.729Z,0.00
2018-05-16T01:22:20.668Z,0.00
2018-05-16T01:23:20.602Z,0.00
2018-05-16T01:24:20.544Z,0.00
2018-05-16T01:25:20.479Z,0.00
2018-05-16T01:26:20.421Z,0.00
2018-05-16T01:27:20.356Z,0.00
2018-05-16T01:28:20.306Z,0.00
2018-05-16T01:29:20.238Z,0.00
2018-05-16T01:30:20.170Z,0.00
2018-05-16T01:31:20.108Z,0.00
2018-05-16T01:32:20.090Z,0.00
2018-05-16T01:33:19.982Z,0.00
2018-05-16T01:34:19.919Z,0.00
2018-05-16T01:35:19.857Z,0.00
2018-05-16T01:36:19.798Z,0.00
2018-05-16T01:37:19.743Z,0.00
2018-05-16T01:38:19.670Z,0.00
2018-05-16T01:39:19.614Z,0.00
2018-05-16T01:40:19.544Z,0.00
2018-05-16T01:41:19.493Z,0.00
2018-05-16T01:42:19.428Z,0.00
2018-05-16T01:43:19.355Z,0.00
2018-05-16T01:44:19.300Z,0.00
2018-05-16T01:45:19.241Z,0.00
2018-05-16T01:46:19.170Z,0.00
2018-05-16T01:47:19.112Z,0.00
2018-05-16T01:48:19.049Z,0.00
2018-05-16T01:49:18.985Z,0.00
2018-05-16T01:50:18.924Z,0.00
2018-05-16T01:51:18.860Z,0.00
2018-05-16T01:52:18.805Z,0.00
2018-05-16T01:53:18.739Z,0.00
2018-05-16T01:54:18.676Z,0.00
2018-05-16T01:55:18.610Z,0.00
2018-05-16T01:56:18.551Z,0.00
2018-05-16T01:57:18.491Z,0.00
2018-05-16T01:58:18.425Z,0.00
2018-05-16T01:59:18.364Z,0.00
2018-05-16T02:00:18.307Z,0.00
2018-05-16T02:01:18.239Z,0.00
2018-05-16T02:02:18.180Z,0.00
2018-05-16T02:03:18.113Z,0.00
2018-05-16T02:04:18.053Z,0.00
2018-05-16T02:05:17.992Z,0.00
2018-05-16T02:06:17.934Z,0.00
2018-05-16T02:07:17.866Z,0.00
2018-05-16T02:08:17.812Z,0.00
2018-05-16T02:09:17.741Z,0.00
2018-05-16T02:10:17.674Z,0.00
2018-05-16T02:11:17.616Z,0.00
2018-05-16T02:12:25.185Z,0.00
2018-05-16T02:14:10.871Z,0.00
2018-05-16T02:15:10.769Z,0.00
2018-05-16T02:16:10.708Z,0.00
2018-05-16T02:17:10.642Z,0.00
2018-05-16T02:18:10.579Z,0.00
2018-05-16T02:19:10.518Z,0.00
2018-05-16T02:20:10.456Z,0.00
2018-05-16T02:21:10.396Z,0.00
2018-05-16T02:22:10.333Z,0.00
2018-05-16T02:23:10.277Z,0.00
2018-05-16T02:24:10.208Z,0.00
2018-05-16T02:25:10.148Z,0.00
2018-05-16T02:26:10.081Z,0.00
2018-05-16T02:27:10.021Z,0.00
2018-05-16T02:28:09.967Z,0.00
2018-05-16T02:29:09.895Z,0.00
2018-05-16T02:30:09.830Z,0.00
2018-05-16T02:31:09.772Z,0.00
2018-05-16T02:32:09.710Z,0.00
2018-05-16T02:33:09.649Z,0.00
2018-05-16T02:34:09.587Z,0.00
2018-05-16T02:35:09.523Z,4.00
2018-05-16T02:36:09.461Z,4.00
2018-05-16T02:37:09.396Z,4.00
2018-05-16T02:38:09.338Z,4.00
2018-05-16T02:39:09.274Z,0.00
2018-05-16T02:40:09.215Z,4.00
2018-05-16T02:41:09.150Z,4.00
2018-05-16T02:42:09.092Z,4.00
2018-05-16T02:43:09.028Z,8.00
2018-05-16T02:44:08.964Z,4.00
2018-05-16T02:45:08.914Z,4.00
2018-05-16T02:46:08.845Z,8.00
2018-05-16T02:47:08.776Z,8.00
2018-05-16T02:48:08.727Z,8.00
2018-05-16T02:49:08.648Z,12.00
2018-05-16T02:50:08.591Z,12.00
2018-05-16T02:51:08.525Z,16.00
2018-05-16T02:52:08.465Z,20.00
2018-05-16T02:53:08.407Z,20.00
2018-05-16T02:54:08.351Z,24.00
2018-05-16T02:55:08.291Z,24.00
2018-05-16T02:56:08.221Z,28.00
2018-05-16T02:57:08.159Z,36.00
2018-05-16T02:58:08.091Z,40.00
2018-05-16T02:59:08.038Z,40.00
2018-05-16T03:00:07.968Z,44.00
2018-05-16T03:01:07.902Z,48.00
2018-05-16T03:02:07.847Z,60.00
2018-05-16T03:03:07.777Z,64.00
2018-05-16T03:04:07.720Z,68.00
2018-05-16T03:05:07.653Z,72.00
2018-05-16T03:06:07.593Z,72.00
2018-05-16T03:07:07.535Z,76.00
2018-05-16T03:08:07.474Z,84.00
2018-05-16T03:09:07.403Z,88.00
2018-05-16T03:10:07.340Z,104.00
2018-05-16T03:11:07.284Z,112.00
2018-05-16T03:12:07.218Z,124.00
2018-05-16T03:13:07.159Z,128.00
2018-05-16T03:14:07.095Z,136.00
2018-05-16T03:15:07.031Z,140.00
2018-05-16T03:16:06.969Z,156.00
2018-05-16T03:17:06.905Z,172.00
2018-05-16T03:18:06.845Z,200.00
2018-05-16T03:19:06.780Z,240.00
2018-05-16T03:20:06.720Z,252.00
2018-05-16T03:21:06.658Z,248.00
2018-05-16T03:22:06.594Z,264.00
2018-05-16T03:23:06.529Z,276.00
2018-05-16T03:24:06.469Z,292.00
2018-05-16T03:25:06.407Z,320.00
2018-05-16T03:26:06.344Z,336.00
2018-05-16T03:27:06.282Z,340.00
2018-05-16T03:28:06.222Z,348.00
2018-05-16T03:29:06.163Z,360.00
2018-05-16T03:30:06.092Z,388.00
2018-05-16T03:31:06.034Z,428.00
2018-05-16T03:32:05.978Z,436.00
2018-05-16T03:33:05.907Z,452.00
2018-05-16T03:34:05.848Z,480.00
2018-05-16T03:35:05.783Z,516.00
2018-05-16T03:36:05.720Z,548.00
2018-05-16T03:37:05.659Z,552.00
2018-05-16T03:38:05.599Z,532.00
2018-05-16T03:39:05.536Z,536.00
2018-05-16T03:40:05.472Z,568.00
2018-05-16T03:41:05.408Z,612.00
2018-05-16T03:42:05.346Z,616.00
2018-05-16T03:43:05.289Z,688.00
2018-05-16T03:44:05.221Z,692.00
2018-05-16T03:45:05.162Z,684.00
2018-05-16T03:46:05.106Z,712.00
2018-05-16T03:47:05.035Z,732.00
2018-05-16T03:48:04.968Z,856.00
2018-05-16T03:49:04.913Z,840.00
2018-05-16T03:50:04.851Z,804.00
2018-05-16T03:51:04.789Z,848.00
2018-05-16T03:52:04.822Z,908.00
2018-05-16T03:53:04.661Z,976.00
2018-05-16T03:54:04.604Z,1016.00
2018-05-16T03:55:04.535Z,1052.00
2018-05-16T03:56:04.478Z,1052.00
2018-05-16T03:57:04.415Z,1120.00
2018-05-16T03:58:04.353Z,1144.00
2018-05-16T03:59:04.289Z,1156.00
2018-05-16T04:00:04.225Z,1204.00
2018-05-16T04:01:04.162Z,1264.00
2018-05-16T04:02:04.100Z,1348.00
2018-05-16T04:03:04.039Z,1448.00
2018-05-16T04:04:03.979Z,1536.00
2018-05-16T04:05:03.915Z,1672.00
2018-05-16T04:06:03.852Z,1648.00
2018-05-16T04:07:03.791Z,1704.00
2018-05-16T04:08:03.728Z,1788.00
2018-05-16T04:09:03.667Z,1900.00
2018-05-16T04:10:03.605Z,2008.00
2018-05-16T04:11:03.542Z,2064.00
2018-05-16T04:12:03.483Z,2208.00
2018-05-16T04:13:03.416Z,2292.00
2018-05-16T04:14:03.356Z,2268.00
2018-05-16T04:15:03.297Z,2356.00
2018-05-16T04:16:03.231Z,2532.00
2018-05-16T04:17:03.170Z,2724.00
2018-05-16T04:18:03.108Z,2708.00
2018-05-16T04:19:03.038Z,2856.00
2018-05-16T04:20:02.991Z,2932.00
2018-05-16T04:21:02.921Z,2920.00
2018-05-16T04:22:02.867Z,2836.00
2018-05-16T04:23:02.806Z,2904.00
2018-05-16T04:24:02.736Z,3052.00
2018-05-16T04:25:02.669Z,2980.00
2018-05-16T04:26:02.606Z,2812.00
2018-05-16T04:27:02.546Z,2772.00
2018-05-16T04:28:02.488Z,2760.00
2018-05-16T04:29:02.422Z,2716.00
2018-05-16T04:30:02.373Z,2668.00
2018-05-16T04:31:02.303Z,2736.00
2018-05-16T04:32:02.238Z,2664.00
2018-05-16T04:33:02.176Z,2476.00
2018-05-16T04:34:02.114Z,2416.00
2018-05-16T04:35:02.058Z,2496.00
2018-05-16T04:36:01.993Z,2512.00
2018-05-16T04:37:01.927Z,2452.00
2018-05-16T04:38:01.865Z,2288.00
2018-05-16T04:39:01.805Z,2192.00
2018-05-16T04:40:01.742Z,2256.00
2018-05-16T04:41:01.682Z,2320.00
2018-05-16T04:42:01.620Z,2292.00
2018-05-16T04:43:01.554Z,2244.00
2018-05-16T04:44:01.497Z,2376.00
2018-05-16T04:45:01.436Z,2492.00
2018-05-16T04:46:01.368Z,2628.00
2018-05-16T04:47:01.308Z,2916.00
2018-05-16T04:48:01.247Z,3068.00
2018-05-16T04:49:01.184Z,3148.00
2018-05-16T04:50:01.123Z,3208.00
2018-05-16T04:51:01.062Z,3140.00
2018-05-16T04:52:00.998Z,3376.00
2018-05-16T04:53:00.936Z,3620.00
2018-05-16T04:54:00.880Z,3960.00
2018-05-16T04:55:00.813Z,4168.00
2018-05-16T04:56:00.752Z,4336.00
2018-05-16T04:57:00.694Z,4296.00
2018-05-16T04:58:00.629Z,4484.00
2018-05-16T04:59:00.570Z,4700.00
2018-05-16T05:00:00.507Z,5152.00
2018-05-16T05:01:00.559Z,5748.00
2018-05-16T05:02:00.377Z,5840.00
2018-05-16T05:03:00.319Z,5856.00
2018-05-16T05:04:00.256Z,5680.00
2018-05-16T05:05:00.193Z,5248.00
2018-05-16T05:06:00.131Z,5256.00
2018-05-16T05:07:00.071Z,5188.00
2018-05-16T05:08:00.012Z,5280.00
2018-05-16T05:08:59.988Z,5456.00
2018-05-16T05:09:59.891Z,5424.00
2018-05-16T05:10:59.822Z,5164.00
2018-05-16T05:11:59.764Z,4860.00
2018-05-16T05:12:59.701Z,4636.00
2018-05-16T05:13:59.649Z,4332.00
2018-05-16T05:14:59.581Z,4480.00
2018-05-16T05:15:59.523Z,4744.00
2018-05-16T05:16:59.453Z,5312.00
2018-05-16T05:17:59.391Z,5708.00
2018-05-16T05:18:59.331Z,5844.00
2018-05-16T05:19:59.270Z,5788.00
2018-05-16T05:20:59.209Z,5504.00
2018-05-16T05:21:59.148Z,5708.00
2018-05-16T05:22:59.086Z,5752.00
2018-05-16T05:23:59.036Z,5444.00
2018-05-16T05:24:58.976Z,5536.00
2018-05-16T05:25:58.902Z,5588.00
2018-05-16T05:26:58.841Z,5596.00
2018-05-16T05:27:58.778Z,5728.00
2018-05-16T05:28:58.715Z,5800.00
2018-05-16T05:29:58.654Z,6084.00
2018-05-16T05:30:58.594Z,6376.00
2018-05-16T05:31:58.532Z,6208.00
2018-05-16T05:32:58.472Z,6184.00
2018-05-16T05:33:58.412Z,6632.00
2018-05-16T05:34:58.436Z,7092.00
2018-05-16T05:35:58.303Z,7288.00
2018-05-16T05:36:58.247Z,7828.00
2018-05-16T05:37:58.163Z,8252.00
2018-05-16T05:38:58.104Z,8712.00
2018-05-16T05:39:58.047Z,9028.00
2018-05-16T05:40:57.979Z,10260.00
2018-05-16T05:41:57.920Z,9568.00
2018-05-16T05:42:57.859Z,9456.00
2018-05-16T05:43:57.806Z,9924.00
2018-05-16T05:44:57.740Z,10960.00
2018-05-16T05:45:57.750Z,10292.00
2018-05-16T05:46:57.616Z,10220.00
2018-05-16T05:47:57.589Z,9588.00
2018-05-16T05:48:57.492Z,8708.00
2018-05-16T05:49:57.440Z,9356.00
2018-05-16T05:50:57.367Z,9904.00
2018-05-16T05:51:57.315Z,8444.00
2018-05-16T05:52:57.276Z,8436.00
2018-05-16T05:53:57.216Z,8584.00
2018-05-16T05:54:57.129Z,8616.00
2018-05-16T05:55:57.067Z,8900.00
2018-05-16T05:56:57.007Z,10204.00
2018-05-16T05:57:56.947Z,10224.00
2018-05-16T05:58:56.889Z,9772.00
2018-05-16T05:59:56.864Z,8260.00
2018-05-16T06:00:56.773Z,10364.00
2018-05-16T06:01:56.702Z,10828.00
2018-05-16T06:02:56.643Z,9548.00
2018-05-16T06:03:56.583Z,8980.00
2018-05-16T06:04:56.524Z,10096.00
2018-05-16T06:05:56.463Z,11020.00
2018-05-16T06:06:56.403Z,10412.00
2018-05-16T06:07:56.342Z,10692.00
2018-05-16T06:08:56.279Z,11072.00
2018-05-16T06:09:56.221Z,9804.00
2018-05-16T06:10:56.161Z,9388.00
2018-05-16T06:11:56.101Z,8088.00
2018-05-16T06:12:56.037Z,8696.00
2018-05-16T06:13:55.977Z,8784.00
2018-05-16T06:14:55.918Z,8328.00
2018-05-16T06:15:55.861Z,8328.00
2018-05-16T06:16:55.795Z,9252.00
2018-05-16T06:17:55.740Z,8624.00
2018-05-16T06:18:55.675Z,7376.00
2018-05-16T06:19:55.633Z,6904.00
2018-05-16T06:20:55.556Z,7756.00
2018-05-16T06:21:55.498Z,8304.00
2018-05-16T06:22:55.437Z,8176.00
2018-05-16T06:23:55.379Z,7548.00
2018-05-16T06:24:55.313Z,7624.00
2018-05-16T06:25:55.252Z,7856.00
2018-05-16T06:26:55.204Z,8524.00
2018-05-16T06:27:55.134Z,9528.00
2018-05-16T06:28:55.069Z,9976.00
2018-05-16T06:29:55.016Z,10952.00
2018-05-16T06:30:54.951Z,11100.00
2018-05-16T06:31:54.906Z,10584.00
2018-05-16T06:32:54.833Z,11724.00
2018-05-16T06:33:54.771Z,10596.00
2018-05-16T06:34:54.711Z,9088.00
2018-05-16T06:35:54.650Z,10360.00
2018-05-16T06:36:54.590Z,9820.00
2018-05-16T06:37:54.528Z,9444.00
2018-05-16T06:38:54.466Z,10088.00
2018-05-16T06:39:54.410Z,10152.00
2018-05-16T06:40:54.348Z,10020.00
2018-05-16T06:41:54.293Z,9324.00
2018-05-16T06:42:54.225Z,8080.00
2018-05-16T06:43:54.162Z,7360.00
2018-05-16T06:44:54.102Z,7048.00
2018-05-16T06:45:54.090Z,7156.00
2018-05-16T06:46:53.986Z,6968.00
2018-05-16T06:47:53.923Z,8176.00
2018-05-16T06:48:53.873Z,7440.00
2018-05-16T06:49:53.803Z,8160.00
2018-05-16T06:50:53.741Z,7928.00
2018-05-16T06:51:53.677Z,7664.00
2018-05-16T06:52:53.621Z,7984.00
2018-05-16T06:53:53.561Z,7784.00
2018-05-16T06:54:53.501Z,7316.00
2018-05-16T06:55:53.447Z,7848.00
2018-05-16T06:56:53.378Z,7896.00
2018-05-16T06:57:53.316Z,8032.00
2018-05-16T06:58:53.259Z,8924.00
2018-05-16T06:59:53.199Z,9292.00
2018-05-16T07:00:53.137Z,9576.00
2018-05-16T07:01:53.075Z,9624.00
2018-05-16T07:02:53.013Z,10228.00
2018-05-16T07:03:52.955Z,10384.00
2018-05-16T07:04:52.891Z,10608.00
2018-05-16T07:05:52.835Z,10768.00
2018-05-16T07:06:52.773Z,11304.00
2018-05-16T07:07:52.728Z,10216.00
2018-05-16T07:08:52.652Z,9864.00
2018-05-16T07:09:52.595Z,9864.00
2018-05-16T07:10:52.533Z,9900.00
2018-05-16T07:11:52.474Z,9904.00
2018-05-16T07:12:52.411Z,10152.00
2018-05-16T07:13:52.367Z,10520.00
2018-05-16T07:14:52.294Z,11020.00
2018-05-16T07:15:52.239Z,11576.00
2018-05-16T07:16:52.177Z,11952.00
2018-05-16T07:17:52.119Z,12252.00
2018-05-16T07:18:52.054Z,12468.00
2018-05-16T07:19:51.999Z,12712.00
2018-05-16T07:20:51.931Z,12940.00
2018-05-16T07:21:51.873Z,13164.00
2018-05-16T07:22:51.838Z,13228.00
2018-05-16T07:23:59.403Z,13300.00
2018-05-16T07:25:45.077Z,13072.00
2018-05-16T07:26:44.980Z,13272.00
2018-05-16T07:28:42.349Z,13292.00
2018-05-16T07:29:39.193Z,13260.00
2018-05-16T07:31:33.487Z,13292.00
2018-05-16T07:32:42.022Z,13208.00
2018-05-16T07:34:27.694Z,13252.00
2018-05-16T07:35:27.601Z,13404.00
2018-05-16T07:36:36.257Z,13336.00
2018-05-16T07:38:21.852Z,12948.00
2018-05-16T07:39:29.383Z,12896.00
2018-05-16T07:41:15.171Z,13376.00
2018-05-16T07:42:23.598Z,14212.00
2018-05-16T07:44:09.273Z,15200.00
2018-05-16T07:45:09.180Z,14484.00
2018-05-16T07:47:03.490Z,14320.00
2018-05-16T07:48:03.391Z,14276.00
2018-05-16T07:49:57.699Z,14444.00
2018-05-16T07:50:57.614Z,14860.00
2018-05-16T07:51:57.555Z,15216.00
2018-05-16T07:52:57.501Z,15532.00
2018-05-16T07:53:57.442Z,15836.00
2018-05-16T07:54:57.379Z,16336.00
2018-05-16T07:55:57.382Z,16168.00
2018-05-16T07:56:57.258Z,16608.00
2018-05-16T07:57:57.198Z,17760.00
2018-05-16T07:58:57.198Z,18016.00
2018-05-16T07:59:57.084Z,18272.00
2018-05-16T08:00:57.025Z,18976.00
2018-05-16T08:01:56.967Z,19360.00
2018-05-16T08:02:56.912Z,19296.00
2018-05-16T08:03:56.845Z,19264.00
2018-05-16T08:04:56.791Z,18336.00
2018-05-16T08:05:56.734Z,18944.00
2018-05-16T08:06:56.679Z,18624.00
2018-05-16T08:07:56.615Z,18368.00
2018-05-16T08:08:56.557Z,17568.00
2018-05-16T08:09:56.496Z,16536.00
2018-05-16T08:10:56.447Z,15880.00
2018-05-16T08:11:56.387Z,15008.00
2018-05-16T08:12:56.329Z,14176.00
2018-05-16T08:13:56.277Z,13784.00
2018-05-16T08:14:56.212Z,13824.00
2018-05-16T08:15:56.151Z,13396.00
2018-05-16T08:16:56.100Z,13616.00
2018-05-16T08:17:56.037Z,13120.00
2018-05-16T08:18:55.978Z,13028.00
2018-05-16T08:19:55.923Z,13104.00
2018-05-16T08:20:55.862Z,12280.00
2018-05-16T08:21:55.804Z,12104.00
2018-05-16T08:22:55.748Z,12132.00
2018-05-16T08:23:55.694Z,12116.00
2018-05-16T08:24:55.639Z,12332.00
2018-05-16T08:25:55.575Z,12504.00
2018-05-16T08:27:03.254Z,12608.00
2018-05-16T08:28:49.822Z,12528.00
2018-05-16T08:29:57.434Z,12564.00
2018-05-16T08:31:53.092Z,13128.00
2018-05-16T08:32:43.952Z,13568.00
2018-05-16T08:34:37.279Z,14492.00
2018-05-16T08:35:37.187Z,14852.00
2018-05-16T08:37:31.610Z,14552.00
2018-05-16T08:38:31.404Z,14228.00
2018-05-16T08:40:25.343Z,13420.00
2018-05-16T08:41:24.635Z,13112.00
2018-05-16T08:43:18.931Z,12392.00
2018-05-16T08:44:18.840Z,12044.00
2018-05-16T08:45:18.783Z,12000.00
2018-05-16T08:46:18.733Z,12028.00
2018-05-16T08:47:18.672Z,12224.00
2018-05-16T08:48:18.606Z,12368.00
2018-05-16T08:49:18.548Z,12432.00
2018-05-16T08:50:18.502Z,12744.00
2018-05-16T08:51:18.431Z,12668.00
2018-05-16T08:52:18.375Z,12684.00
2018-05-16T08:53:18.316Z,12888.00
2018-05-16T08:54:18.256Z,13192.00
2018-05-16T08:55:18.199Z,13644.00
2018-05-16T08:56:18.136Z,14092.00
2018-05-16T08:57:18.088Z,14704.00
2018-05-16T08:58:18.021Z,15376.00
2018-05-16T08:59:17.965Z,15888.00
2018-05-16T09:00:17.909Z,16404.00
2018-05-16T09:01:17.920Z,17064.00
2018-05-16T09:02:17.791Z,17760.00
2018-05-16T09:03:17.732Z,18080.00
2018-05-16T09:04:17.677Z,18176.00
2018-05-16T09:05:17.621Z,18816.00
2018-05-16T09:06:17.566Z,19456.00
2018-05-16T09:07:17.502Z,19840.00
2018-05-16T09:08:17.444Z,20320.00
2018-05-16T09:09:17.402Z,19936.00
2018-05-16T09:10:17.327Z,19776.00
2018-05-16T09:11:17.270Z,19424.00
2018-05-16T09:12:17.215Z,19200.00
2018-05-16T09:13:17.158Z,19680.00
2018-05-16T09:14:17.101Z,20832.00
2018-05-16T09:15:17.042Z,21440.00
2018-05-16T09:16:16.984Z,21888.00
2018-05-16T09:17:17.014Z,22688.00
2018-05-16T09:18:16.874Z,22336.00
2018-05-16T09:19:16.816Z,21184.00
2018-05-16T09:20:16.759Z,18816.00
2018-05-16T09:21:16.699Z,17320.00
2018-05-16T09:22:16.640Z,16092.00
2018-05-16T09:23:16.589Z,15520.00
2018-05-16T09:24:16.531Z,16020.00
2018-05-16T09:25:16.540Z,16132.00
2018-05-16T09:26:16.418Z,16288.00
2018-05-16T09:27:16.399Z,15624.00
2018-05-16T09:28:16.320Z,15556.00
2018-05-16T09:29:16.254Z,14960.00
2018-05-16T09:30:16.189Z,14368.00
2018-05-16T09:31:16.139Z,13272.00
2018-05-16T09:32:17.115Z,12488.00
2018-05-16T09:33:16.023Z,11848.00
2018-05-16T09:34:15.963Z,11860.00
2018-05-16T09:35:15.906Z,12364.00
2018-05-16T09:36:15.850Z,12884.00
2018-05-16T09:37:15.794Z,13320.00
2018-05-16T09:38:18.680Z,13688.00
2018-05-16T09:39:15.695Z,14604.00
2018-05-16T09:40:15.673Z,15536.00
2018-05-16T09:41:15.570Z,16212.00
2018-05-16T09:42:15.548Z,16748.00
2018-05-16T09:43:15.473Z,17264.00
2018-05-16T09:44:15.406Z,18528.00
2018-05-16T09:45:15.346Z,19584.00
2018-05-16T09:46:15.282Z,21312.00
2018-05-16T09:47:15.225Z,21984.00
2018-05-16T09:48:15.167Z,21888.00
2018-05-16T09:49:15.112Z,21952.00
2018-05-16T09:50:15.163Z,22080.00
2018-05-16T09:51:15.179Z,22336.00
2018-05-16T09:52:14.965Z,22304.00
2018-05-16T09:53:15.072Z,22304.00
2018-05-16T09:54:14.830Z,22784.00
2018-05-16T09:55:14.778Z,23744.00
2018-05-16T09:56:14.718Z,24640.00
2018-05-16T09:57:14.839Z,25344.00
2018-05-16T09:58:14.619Z,26016.00
2018-05-16T09:59:14.755Z,26528.00
2018-05-16T10:00:14.696Z,26496.00
2018-05-16T10:01:14.438Z,26272.00
2018-05-16T10:02:14.578Z,25536.00
2018-05-16T10:03:14.326Z,23968.00
2018-05-16T10:04:14.399Z,22080.00
2018-05-16T10:05:14.221Z,20672.00
2018-05-16T10:06:14.348Z,19968.00
2018-05-16T10:07:14.104Z,19552.00
2018-05-16T10:08:14.055Z,19200.00
2018-05-16T10:09:14.169Z,19008.00
2018-05-16T10:10:13.973Z,18912.00
2018-05-16T10:11:14.073Z,19232.00
2018-05-16T10:12:13.828Z,19904.00
2018-05-16T10:13:13.947Z,20960.00
2018-05-16T10:14:13.719Z,21920.00
2018-05-16T10:15:13.810Z,22752.00
2018-05-16T10:16:13.618Z,23584.00
2018-05-16T10:17:13.779Z,24320.00
2018-05-16T10:18:13.697Z,24928.00
2018-05-16T10:19:13.446Z,25184.00
2018-05-16T10:20:14.289Z,25472.00
2018-05-16T10:21:13.334Z,25632.00
2018-05-16T10:22:13.457Z,25856.00
2018-05-16T10:23:13.245Z,26112.00
2018-05-16T10:24:13.289Z,26336.00
2018-05-16T10:25:13.135Z,26432.00
2018-05-16T10:26:13.266Z,26624.00
2018-05-16T10:27:13.216Z,26784.00
2018-05-16T10:28:12.955Z,27136.00
2018-05-16T10:29:13.078Z,27328.00
2018-05-16T10:30:12.844Z,27456.00
2018-05-16T10:31:12.791Z,27424.00
2018-05-16T10:32:12.736Z,27648.00
2018-05-16T10:33:12.698Z,28224.00
2018-05-16T10:34:12.622Z,29536.00
2018-05-16T10:35:12.573Z,29600.00
2018-05-16T10:36:12.518Z,29408.00
2018-05-16T10:37:12.465Z,29984.00
2018-05-16T10:38:12.417Z,29504.00
2018-05-16T10:39:12.359Z,29792.00
2018-05-16T10:40:12.304Z,29472.00
2018-05-16T10:41:12.249Z,29568.00
2018-05-16T10:42:12.198Z,30176.00
2018-05-16T10:43:12.144Z,30656.00
2018-05-16T10:44:12.088Z,30240.00
2018-05-16T10:45:12.030Z,30560.00
2018-05-16T10:46:11.975Z,29408.00
2018-05-16T10:47:11.920Z,29088.00
2018-05-16T10:48:11.998Z,28480.00
2018-05-16T10:49:11.820Z,27776.00
2018-05-16T10:50:11.769Z,27296.00
2018-05-16T10:51:11.740Z,27808.00
2018-05-16T10:52:11.697Z,28000.00
2018-05-16T10:53:11.605Z,27776.00
2018-05-16T10:54:11.553Z,28736.00
2018-05-16T10:55:11.504Z,27712.00
2018-05-16T10:56:11.446Z,28352.00
2018-05-16T10:57:11.394Z,28960.00
2018-05-16T10:58:11.339Z,28608.00
2018-05-16T10:59:11.287Z,29120.00
2018-05-16T11:00:11.240Z,27360.00
2018-05-16T11:01:11.213Z,26880.00
2018-05-16T11:02:11.127Z,28352.00
2018-05-16T11:03:11.076Z,27904.00
2018-05-16T11:04:11.021Z,30112.00
2018-05-16T11:05:10.970Z,31392.00
2018-05-16T11:06:10.912Z,30816.00
2018-05-16T11:07:10.865Z,31328.00
2018-05-16T11:08:10.809Z,55168.00
2018-05-16T11:09:10.765Z,41856.00
2018-05-16T11:10:10.704Z,51392.00
2018-05-16T11:11:10.650Z,51328.00
2018-05-16T11:12:10.599Z,40992.00
2018-05-16T11:13:10.547Z,34016.00
2018-05-16T11:14:10.491Z,29632.00
2018-05-16T11:15:10.462Z,35136.00
2018-05-16T11:16:10.391Z,36000.00
2018-05-16T11:17:10.334Z,35872.00
2018-05-16T11:18:10.283Z,31296.00
2018-05-16T11:19:10.244Z,30656.00
2018-05-16T11:20:10.179Z,42016.00
2018-05-16T11:21:10.129Z,41216.00
2018-05-16T11:22:10.076Z,80352.00
2018-05-16T11:23:10.024Z,89728.00
2018-05-16T11:24:09.967Z,51040.00
2018-05-16T11:25:09.922Z,38880.00
2018-05-16T11:26:09.865Z,43360.00
2018-05-16T11:27:09.824Z,63936.00
2018-05-16T11:28:09.761Z,73536.00
2018-05-16T11:29:09.711Z,63712.00
2018-05-16T11:30:09.658Z,69504.00
2018-05-16T11:31:09.607Z,67232.00
2018-05-16T11:32:09.561Z,98816.00
2018-05-16T11:33:09.508Z,94304.00
2018-05-16T11:34:09.456Z,64064.00
2018-05-16T11:35:09.409Z,70304.00
2018-05-16T11:36:09.356Z,74528.00
2018-05-16T11:37:09.304Z,40928.00
2018-05-16T11:38:09.263Z,41312.00
2018-05-16T11:39:09.215Z,24480.00
2018-05-16T11:40:09.161Z,24448.00
2018-05-16T11:41:09.113Z,27168.00
2018-05-16T11:42:09.059Z,33472.00
2018-05-16T11:43:09.010Z,44416.00
2018-05-16T11:44:08.962Z,84224.00
2018-05-16T11:45:08.912Z,82656.00
2018-05-16T11:46:08.875Z,78624.00
2018-05-16T11:47:08.818Z,59712.00
2018-05-16T11:48:08.763Z,82912.00
2018-05-16T11:49:08.713Z,75456.00
2018-05-16T11:50:08.670Z,69536.00
2018-05-16T11:51:08.646Z,83040.00
2018-05-16T11:52:08.572Z,79904.00
2018-05-16T11:53:08.526Z,85984.00
2018-05-16T11:54:08.474Z,22048.00
2018-05-16T11:55:08.423Z,15136.00
2018-05-16T11:56:08.377Z,14032.00
2018-05-16T11:57:08.325Z,13672.00
2018-05-16T11:58:08.317Z,13824.00
2018-05-16T11:59:08.250Z,14552.00
2018-05-16T12:00:08.178Z,16208.00
2018-05-16T12:01:08.127Z,20512.00
2018-05-16T12:02:08.078Z,57408.00
2018-05-16T12:03:08.031Z,78976.00
2018-05-16T12:04:07.997Z,73248.00
2018-05-16T12:05:07.933Z,53248.00
2018-05-16T12:06:07.884Z,50848.00
2018-05-16T12:07:07.837Z,59872.00
2018-05-16T12:08:07.791Z,77920.00
2018-05-16T12:09:07.825Z,72544.00
2018-05-16T12:10:07.724Z,73600.00
2018-05-16T12:11:07.710Z,87968.00
2018-05-16T12:12:07.584Z,87136.00
2018-05-16T12:13:07.537Z,80960.00
2018-05-16T12:14:07.487Z,102496.00
2018-05-16T12:15:07.648Z,81920.00
2018-05-16T12:16:07.390Z,90048.00
2018-05-16T12:17:07.341Z,103808.00
2018-05-16T12:18:07.301Z,104544.00
2018-05-16T12:19:07.252Z,100640.00
2018-05-16T12:20:07.203Z,103040.00
2018-05-16T12:21:07.161Z,79008.00
2018-05-16T12:22:07.110Z,92128.00
2018-05-16T12:23:07.064Z,104928.00
2018-05-16T12:24:07.021Z,104672.00
2018-05-16T12:25:06.982Z,76352.00
2018-05-16T12:26:06.928Z,95328.00
2018-05-16T12:27:06.889Z,65792.00